createdAt,value
2023-04-16T00:00:56.268Z,102143.81
2023-04-16T00:03:25.626Z,102142.81
2023-04-16T00:05:55.788Z,102145.09
2023-04-16T00:08:25.399Z,102141.50
2023-04-16T00:10:54.004Z,102142.66
2023-04-16T00:13:22.561Z,102144.78
2023-04-16T00:15:50.355Z,102146.50
2023-04-16T00:18:18.248Z,102150.09
2023-04-16T00:20:47.464Z,102156.25
2023-04-16T00:23:15.340Z,102151.06
2023-04-16T00:25:43.631Z,102155.47
2023-04-16T00:28:11.436Z,102161.19
2023-04-16T00:30:40.075Z,102166.25
2023-04-16T00:33:07.898Z,102161.94
2023-04-16T00:35:35.959Z,102166.91
2023-04-16T00:38:05.551Z,102164.94
2023-04-16T00:40:33.374Z,102170.31
2023-04-16T00:43:01.352Z,102177.38
2023-04-16T00:45:29.265Z,102177.50
2023-04-16T00:48:00.610Z,102169.72
2023-04-16T00:50:28.995Z,102178.91
2023-04-16T00:52:58.120Z,102175.94
2023-04-16T00:55:27.504Z,102178.25
2023-04-16T00:57:55.703Z,102181.69
2023-04-16T01:00:23.903Z,102180.19
2023-04-16T01:02:51.903Z,102187.25
2023-04-16T01:05:20.519Z,102182.78
2023-04-16T01:07:48.629Z,102184.84
2023-04-16T01:10:16.569Z,102180.34
2023-04-16T01:12:45.907Z,102179.34
2023-04-16T01:15:13.701Z,102185.88
2023-04-16T01:17:42.441Z,102186.97
2023-04-16T01:20:11.231Z,102188.44
2023-04-16T01:22:40.536Z,102188.34
2023-04-16T01:25:08.649Z,102185.03
2023-04-16T01:27:37.670Z,102183.94
2023-04-16T01:30:06.991Z,102186.22
2023-04-16T01:32:46.467Z,102191.91
2023-04-16T01:35:14.839Z,102185.47
2023-04-16T01:37:45.059Z,102181.63
2023-04-16T01:40:13.562Z,102185.06
2023-04-16T01:42:41.660Z,102182.81
2023-04-16T01:45:11.720Z,102180.09
2023-04-16T01:47:41.801Z,102179.53
2023-04-16T01:50:11.817Z,102181.72
2023-04-16T01:52:39.781Z,102184.94
2023-04-16T01:55:10.524Z,102188.38
2023-04-16T01:57:39.014Z,102185.75
2023-04-16T02:00:09.886Z,102184.13
2023-04-16T02:02:46.738Z,102184.53
2023-04-16T02:05:20.106Z,102188.13
2023-04-16T02:07:47.932Z,102188.00
2023-04-16T02:10:17.147Z,102187.84
2023-04-16T02:12:45.632Z,102190.44
2023-04-16T02:15:15.828Z,102198.69
2023-04-16T02:17:43.765Z,102198.88
2023-04-16T02:20:12.725Z,102193.81
2023-04-16T02:22:52.903Z,102192.03
2023-04-16T02:25:24.427Z,102194.75
2023-04-16T02:27:54.856Z,102193.63
2023-04-16T02:30:34.915Z,102200.81
2023-04-16T02:33:05.477Z,102197.47
2023-04-16T02:35:33.579Z,102201.78
2023-04-16T02:38:01.937Z,102194.38
2023-04-16T02:40:31.802Z,102193.03
2023-04-16T02:43:00.515Z,102194.16
2023-04-16T02:45:28.724Z,102185.91
2023-04-16T02:47:56.685Z,102188.44
2023-04-16T02:50:24.456Z,102185.88
2023-04-16T02:52:52.499Z,102190.50
2023-04-16T02:55:20.280Z,102182.66
2023-04-16T02:57:49.359Z,102176.59
2023-04-16T03:00:17.335Z,102178.78
2023-04-16T03:02:45.228Z,102182.97
2023-04-16T03:05:13.295Z,102182.38
2023-04-16T03:07:41.121Z,102182.06
2023-04-16T03:10:10.186Z,102189.69
2023-04-16T03:12:37.979Z,102191.28
2023-04-16T03:15:10.488Z,102186.19
2023-04-16T03:17:38.434Z,102191.44
2023-04-16T03:20:08.008Z,102191.44
2023-04-16T03:22:36.006Z,102190.44
2023-04-16T03:25:04.112Z,102186.66
2023-04-16T03:27:32.275Z,102189.25
2023-04-16T03:30:00.017Z,102194.59
2023-04-16T03:32:30.412Z,102202.56
2023-04-16T03:34:58.562Z,102204.88
2023-04-16T03:37:26.668Z,102204.63
2023-04-16T03:39:54.530Z,102213.78
2023-04-16T03:42:22.844Z,102206.88
2023-04-16T03:44:50.977Z,102215.19
2023-04-16T03:47:19.936Z,102210.59
2023-04-16T03:49:50.965Z,102214.16
2023-04-16T03:52:21.140Z,102216.38
2023-04-16T03:54:48.941Z,102216.72
2023-04-16T03:57:24.380Z,102210.47
2023-04-16T03:59:54.062Z,102217.00
2023-04-16T04:02:22.879Z,102215.97
2023-04-16T04:04:52.284Z,102214.00
2023-04-16T04:07:20.218Z,102217.81
2023-04-16T04:09:48.267Z,102217.81
2023-04-16T04:12:16.532Z,102222.16
2023-04-16T04:14:45.188Z,102222.88
2023-04-16T04:17:13.028Z,102231.53
2023-04-16T04:19:47.121Z,102225.94
2023-04-16T04:22:23.907Z,102226.81
2023-04-16T04:24:53.715Z,102231.38
2023-04-16T04:27:21.823Z,102234.13
2023-04-16T04:29:49.777Z,102234.25
2023-04-16T04:32:17.646Z,102237.22
2023-04-16T04:34:46.472Z,102240.09
2023-04-16T04:37:14.277Z,102241.09
2023-04-16T04:39:43.574Z,102235.59
2023-04-16T04:42:13.841Z,102248.00
2023-04-16T04:44:41.793Z,102244.25
2023-04-16T04:47:10.179Z,102249.84
2023-04-16T04:49:38.226Z,102250.88
2023-04-16T04:52:06.237Z,102250.34
2023-04-16T04:54:34.283Z,102256.94
2023-04-16T04:57:03.775Z,102255.97
2023-04-16T04:59:31.730Z,102258.59
2023-04-16T05:02:02.440Z,102258.78
2023-04-16T05:04:30.301Z,102267.97
2023-04-16T05:06:58.045Z,102256.91
2023-04-16T05:09:25.861Z,102261.09
2023-04-16T05:11:53.917Z,102262.44
2023-04-16T05:14:23.100Z,102265.75
2023-04-16T05:16:51.423Z,102259.91
2023-04-16T05:19:19.225Z,102269.66
2023-04-16T05:21:46.997Z,102266.75
2023-04-16T05:24:15.057Z,102268.63
2023-04-16T05:26:43.201Z,102268.69
2023-04-16T05:29:11.128Z,102279.31
2023-04-16T05:31:41.038Z,102278.13
2023-04-16T05:34:08.783Z,102280.25
2023-04-16T05:36:36.596Z,102286.56
2023-04-16T05:39:05.219Z,102290.91
2023-04-16T05:41:33.071Z,102291.03
2023-04-16T05:44:00.840Z,102298.94
2023-04-16T05:46:28.686Z,102296.81
2023-04-16T05:48:58.043Z,102291.34
2023-04-16T05:51:27.243Z,102297.41
2023-04-16T05:53:55.064Z,102294.69
2023-04-16T05:56:23.461Z,102298.88
2023-04-16T05:58:51.282Z,102297.88
2023-04-16T06:01:19.404Z,102300.47
2023-04-16T06:03:47.478Z,102300.25
2023-04-16T06:06:16.764Z,102301.00
2023-04-16T06:08:44.640Z,102307.19
2023-04-16T06:11:12.553Z,102310.66
2023-04-16T06:13:40.354Z,102316.75
2023-04-16T06:16:08.686Z,102315.78
2023-04-16T06:18:36.748Z,102321.94
2023-04-16T06:21:05.096Z,102319.94
2023-04-16T06:23:34.293Z,102324.56
2023-04-16T06:26:02.238Z,102324.75
2023-04-16T06:28:30.129Z,102326.94
2023-04-16T06:30:58.222Z,102326.81
2023-04-16T06:33:26.308Z,102337.31
2023-04-16T06:35:54.165Z,102326.28
2023-04-16T06:38:22.295Z,102337.94
2023-04-16T06:40:51.352Z,102340.66
2023-04-16T06:43:19.255Z,102346.22
2023-04-16T06:45:47.096Z,102341.09
2023-04-16T06:48:14.992Z,102340.84
2023-04-16T06:50:42.839Z,102345.69
2023-04-16T06:53:10.656Z,102344.22
2023-04-16T06:55:38.690Z,102345.84
2023-04-16T06:58:07.842Z,102351.34
2023-04-16T07:00:35.725Z,102352.34
2023-04-16T07:03:03.911Z,102350.88
2023-04-16T07:05:31.946Z,102356.72
2023-04-16T07:08:00.113Z,102353.25
2023-04-16T07:10:27.875Z,102352.66
2023-04-16T07:12:55.701Z,102358.03
2023-04-16T07:15:24.796Z,102362.72
2023-04-16T07:17:52.661Z,102364.31
2023-04-16T07:20:20.471Z,102361.53
2023-04-16T07:22:48.245Z,102368.31
2023-04-16T07:25:16.053Z,102368.03
2023-04-16T07:27:43.867Z,102365.91
2023-04-16T07:30:12.450Z,102364.72
2023-04-16T07:32:41.608Z,102360.84
2023-04-16T07:35:10.162Z,102369.19
2023-04-16T07:37:38.009Z,102367.72
2023-04-16T07:40:06.887Z,102367.56
2023-04-16T07:42:34.650Z,102375.34
2023-04-16T07:45:02.434Z,102374.31
2023-04-16T07:47:30.470Z,102378.34
2023-04-16T07:49:59.716Z,102375.69
2023-04-16T07:52:27.774Z,102382.22
2023-04-16T07:54:55.570Z,102375.47
2023-04-16T07:57:23.429Z,102381.81
2023-04-16T07:59:51.455Z,102379.94
2023-04-16T08:02:19.495Z,102377.94
2023-04-16T08:04:47.574Z,102381.53
2023-04-16T08:07:16.818Z,102384.69
2023-04-16T08:09:52.777Z,102388.00
2023-04-16T08:12:21.224Z,102393.53
2023-04-16T08:14:49.307Z,102393.31
2023-04-16T08:17:17.519Z,102397.56
2023-04-16T08:19:45.883Z,102395.66
2023-04-16T08:22:13.969Z,102400.69
2023-04-16T08:24:43.322Z,102397.91
2023-04-16T08:27:18.321Z,102391.91
2023-04-16T08:29:47.288Z,102405.75
2023-04-16T08:32:15.314Z,102406.78
2023-04-16T08:34:43.900Z,102405.25
2023-04-16T08:37:11.781Z,102406.56
2023-04-16T08:39:39.550Z,102401.72
2023-04-16T08:42:15.227Z,102409.38
2023-04-16T08:44:49.214Z,102403.16
2023-04-16T08:47:17.359Z,102407.25
2023-04-16T08:49:46.188Z,102406.81
2023-04-16T08:52:19.541Z,102405.09
2023-04-16T08:54:57.052Z,102408.84
2023-04-16T08:57:31.770Z,102412.19
2023-04-16T09:00:00.572Z,102416.34
2023-04-16T09:02:29.688Z,102413.16
2023-04-16T09:05:00.822Z,102420.09
2023-04-16T09:07:30.252Z,102417.25
2023-04-16T09:10:00.668Z,102419.81
2023-04-16T09:12:31.844Z,102419.84
2023-04-16T09:15:03.046Z,102427.63
2023-04-16T09:17:31.055Z,102422.16
2023-04-16T09:19:59.112Z,102433.81
2023-04-16T09:22:26.873Z,102425.63
2023-04-16T09:24:54.783Z,102428.94
2023-04-16T09:27:25.371Z,102423.78
2023-04-16T09:29:55.476Z,102423.78
2023-04-16T09:32:27.430Z,102426.69
2023-04-16T09:34:57.727Z,102429.00
2023-04-16T09:37:26.360Z,102426.41
2023-04-16T09:39:56.756Z,102433.16
2023-04-16T09:42:29.083Z,102434.03
2023-04-16T09:45:00.496Z,102444.25
2023-04-16T09:47:41.027Z,102451.00
2023-04-16T09:50:12.501Z,102444.41
2023-04-16T09:52:40.883Z,102443.84
2023-04-16T09:55:10.261Z,102450.88
2023-04-16T09:57:39.473Z,102447.28
2023-04-16T10:00:10.483Z,102452.88
2023-04-16T10:02:42.020Z,102452.94
2023-04-16T10:05:10.695Z,102457.38
2023-04-16T10:07:39.055Z,102449.44
2023-04-16T10:10:08.159Z,102446.13
2023-04-16T10:12:35.909Z,102447.75
2023-04-16T10:15:04.913Z,102448.16
2023-04-16T10:17:34.720Z,102448.75
2023-04-16T10:20:04.220Z,102447.00
2023-04-16T10:22:32.251Z,102453.22
2023-04-16T10:25:00.525Z,102453.06
2023-04-16T10:27:29.130Z,102457.13
2023-04-16T10:29:57.717Z,102454.22
2023-04-16T10:32:28.768Z,102452.94
2023-04-16T10:34:59.035Z,102457.81
2023-04-16T10:37:31.221Z,102467.78
2023-04-16T10:39:59.917Z,102455.50
2023-04-16T10:42:27.762Z,102457.41
2023-04-16T10:44:55.620Z,102467.47
2023-04-16T10:47:27.218Z,102462.31
2023-04-16T10:49:55.247Z,102466.16
2023-04-16T10:52:25.468Z,102461.84
2023-04-16T10:54:55.661Z,102464.69
2023-04-16T10:57:23.507Z,102457.66
2023-04-16T10:59:51.461Z,102463.00
2023-04-16T11:02:20.452Z,102465.84
2023-04-16T11:04:49.989Z,102467.41
2023-04-16T11:07:20.738Z,102468.41
2023-04-16T11:09:53.686Z,102467.69
2023-04-16T11:12:23.152Z,102471.19
2023-04-16T11:14:52.330Z,102474.91
2023-04-16T11:17:20.798Z,102463.28
2023-04-16T11:19:49.090Z,102457.94
2023-04-16T11:22:18.816Z,102469.47
2023-04-16T11:24:47.322Z,102457.66
2023-04-16T11:27:17.027Z,102466.91
2023-04-16T11:29:46.934Z,102453.66
2023-04-16T11:32:22.532Z,102462.13
2023-04-16T11:34:50.566Z,102460.56
2023-04-16T11:37:21.995Z,102459.13
2023-04-16T11:39:51.304Z,102464.88
2023-04-16T11:42:24.119Z,102459.56
2023-04-16T11:44:56.798Z,102465.03
2023-04-16T11:47:25.762Z,102463.75
2023-04-16T11:49:54.011Z,102465.47
2023-04-16T11:52:28.864Z,102468.09
2023-04-16T11:54:57.709Z,102471.84
2023-04-16T11:57:28.177Z,102473.00
2023-04-16T12:00:01.454Z,102479.19
2023-04-16T12:02:42.037Z,102477.56
2023-04-16T12:05:28.164Z,102477.00
2023-04-16T12:07:56.545Z,102475.81
2023-04-16T12:10:24.706Z,102477.72
2023-04-16T12:12:54.179Z,102477.41
2023-04-16T12:15:22.073Z,102465.75
2023-04-16T12:17:50.645Z,102464.59
2023-04-16T12:20:18.572Z,102472.22
2023-04-16T12:22:48.347Z,102470.94
2023-04-16T12:25:17.508Z,102485.94
2023-04-16T12:27:47.775Z,102481.16
2023-04-16T12:30:18.587Z,102480.72
2023-04-16T12:32:52.634Z,102479.03
2023-04-16T12:35:31.729Z,102482.03
2023-04-16T12:37:59.925Z,102484.69
2023-04-16T12:40:28.233Z,102488.81
2023-04-16T12:42:56.243Z,102485.38
2023-04-16T12:45:26.028Z,102483.81
2023-04-16T12:47:53.898Z,102483.34
2023-04-16T12:50:21.874Z,102482.06
2023-04-16T12:52:50.015Z,102484.50
2023-04-16T12:55:18.341Z,102482.06
2023-04-16T12:57:48.922Z,102485.03
2023-04-16T13:00:17.802Z,102480.84
2023-04-16T13:02:47.868Z,102483.28
2023-04-16T13:05:19.496Z,102487.63
2023-04-16T13:07:47.714Z,102480.25
2023-04-16T13:10:16.702Z,102486.94
2023-04-16T13:12:46.513Z,102484.78
2023-04-16T13:15:14.605Z,102492.13
2023-04-16T13:17:42.519Z,102486.66
2023-04-16T13:20:12.350Z,102485.63
2023-04-16T13:22:40.347Z,102484.06
2023-04-16T13:25:09.771Z,102483.63
2023-04-16T13:27:37.618Z,102491.69
2023-04-16T13:30:06.404Z,102487.91
2023-04-16T13:32:34.258Z,102488.94
2023-04-16T13:35:02.277Z,102479.31
2023-04-16T13:37:31.653Z,102475.25
2023-04-16T13:39:59.578Z,102479.88
2023-04-16T13:42:28.381Z,102477.69
2023-04-16T13:44:58.178Z,102477.81
2023-04-16T13:47:26.442Z,102476.50
2023-04-16T13:49:54.451Z,102472.56
2023-04-16T13:52:22.391Z,102472.84
2023-04-16T13:54:51.905Z,102475.47
2023-04-16T13:57:22.759Z,102473.69
2023-04-16T13:59:50.732Z,102477.69
2023-04-16T14:02:18.687Z,102470.00
2023-04-16T14:04:46.575Z,102472.78
2023-04-16T14:07:15.529Z,102477.50
2023-04-16T14:09:43.514Z,102468.41
2023-04-16T14:12:12.960Z,102477.38
2023-04-16T14:14:42.201Z,102474.38
2023-04-16T14:17:10.053Z,102473.63
2023-04-16T14:19:37.904Z,102473.59
2023-04-16T14:22:08.721Z,102472.25
2023-04-16T14:24:37.819Z,102479.03
2023-04-16T14:27:05.937Z,102471.38
2023-04-16T14:29:36.651Z,102478.84
2023-04-16T14:32:05.318Z,102471.47
2023-04-16T14:34:33.186Z,102481.59
2023-04-16T14:37:01.130Z,102477.97
2023-04-16T14:39:29.512Z,102475.63
2023-04-16T14:41:57.582Z,102470.44
2023-04-16T14:44:25.563Z,102462.59
2023-04-16T14:46:55.460Z,102461.91
2023-04-16T14:49:23.254Z,102463.72
2023-04-16T14:51:52.451Z,102457.78
2023-04-16T14:54:20.418Z,102457.47
2023-04-16T14:56:48.486Z,102462.97
2023-04-16T14:59:16.417Z,102464.13
2023-04-16T15:01:44.357Z,102475.19
2023-04-16T15:04:13.896Z,102478.56
2023-04-16T15:06:42.046Z,102470.88
2023-04-16T15:09:10.427Z,102474.06
2023-04-16T15:11:38.679Z,102480.41
2023-04-16T15:14:06.916Z,102486.31
2023-04-16T15:16:34.810Z,102483.06
2023-04-16T15:19:04.960Z,102488.81
2023-04-16T15:21:34.589Z,102492.28
2023-04-16T15:24:03.416Z,102484.78
2023-04-16T15:26:31.385Z,102481.06
2023-04-16T15:28:59.239Z,102491.41
2023-04-16T15:31:27.270Z,102475.72
2023-04-16T15:33:56.106Z,102491.09
2023-04-16T15:36:24.130Z,102504.66
2023-04-16T15:38:53.683Z,102498.75
2023-04-16T15:41:21.730Z,102504.81
2023-04-16T15:43:49.705Z,102502.09
2023-04-16T15:46:17.692Z,102512.47
2023-04-16T15:48:46.738Z,102507.53
2023-04-16T15:51:14.734Z,102510.97
2023-04-16T15:53:44.811Z,102505.63
2023-04-16T15:56:14.218Z,102503.75
2023-04-16T15:58:42.241Z,102511.53
2023-04-16T16:01:10.218Z,102512.38
2023-04-16T16:03:38.411Z,102512.03
2023-04-16T16:06:08.485Z,102511.00
2023-04-16T16:08:38.338Z,102508.28
2023-04-16T16:11:06.296Z,102512.25
2023-04-16T16:13:37.125Z,102517.16
2023-04-16T16:16:05.606Z,102519.22
2023-04-16T16:18:33.458Z,102524.13
2023-04-16T16:21:01.475Z,102527.53
2023-04-16T16:23:29.442Z,102521.44
2023-04-16T16:25:57.599Z,102527.56
2023-04-16T16:28:25.554Z,102528.03
2023-04-16T16:30:55.819Z,102530.50
2023-04-16T16:33:23.657Z,102535.19
2023-04-16T16:35:51.407Z,102534.44
2023-04-16T16:38:19.197Z,102537.03
2023-04-16T16:40:46.965Z,102528.47
2023-04-16T16:43:14.852Z,102523.47
2023-04-16T16:45:42.610Z,102517.56
2023-04-16T16:48:11.827Z,102521.63
2023-04-16T16:50:39.698Z,102523.34
2023-04-16T16:53:07.751Z,102522.44
2023-04-16T16:55:36.136Z,102527.59
2023-04-16T16:58:04.689Z,102534.81
2023-04-16T17:00:32.771Z,102532.47
2023-04-16T17:03:01.218Z,102530.50
2023-04-16T17:05:30.658Z,102533.06
2023-04-16T17:07:58.482Z,102528.56
2023-04-16T17:10:26.508Z,102532.75
2023-04-16T17:12:55.733Z,102532.94
2023-04-16T17:15:23.953Z,102523.88
2023-04-16T17:17:51.867Z,102530.59
2023-04-16T17:20:19.950Z,102536.06
2023-04-16T17:22:49.280Z,102538.41
2023-04-16T17:25:17.307Z,102533.50
2023-04-16T17:27:45.049Z,102542.38
2023-04-16T17:30:13.285Z,102542.31
2023-04-16T17:32:41.256Z,102547.63
2023-04-16T17:35:10.385Z,102549.25
2023-04-16T17:37:39.080Z,102543.91
2023-04-16T17:40:10.239Z,102549.97
2023-04-16T17:42:38.644Z,102548.38
2023-04-16T17:45:07.724Z,102553.97
2023-04-16T17:47:36.244Z,102553.25
2023-04-16T17:50:04.731Z,102555.28
2023-04-16T17:52:32.639Z,102561.34
2023-04-16T17:55:01.755Z,102568.38
2023-04-16T17:57:31.568Z,102571.84
2023-04-16T17:59:59.488Z,102574.16
2023-04-16T18:02:27.570Z,102568.91
2023-04-16T18:04:55.724Z,102575.84
2023-04-16T18:07:24.046Z,102572.28
2023-04-16T18:09:52.150Z,102576.00
2023-04-16T18:12:20.152Z,102575.31
2023-04-16T18:14:49.578Z,102577.41
2023-04-16T18:17:17.799Z,102576.94
2023-04-16T18:19:45.703Z,102586.50
2023-04-16T18:22:13.715Z,102581.38
2023-04-16T18:24:41.630Z,102585.47
2023-04-16T18:27:09.686Z,102582.88
2023-04-16T18:29:39.977Z,102593.25
2023-04-16T18:32:11.994Z,102604.97
2023-04-16T18:34:40.607Z,102606.53
2023-04-16T18:37:08.836Z,102607.66
2023-04-16T18:39:37.041Z,102607.75
2023-04-16T18:42:05.238Z,102609.81
2023-04-16T18:44:33.162Z,102615.06
2023-04-16T18:47:01.038Z,102620.06
2023-04-16T18:49:30.658Z,102616.03
2023-04-16T18:51:58.393Z,102626.53
2023-04-16T18:54:28.043Z,102631.16
2023-04-16T18:56:57.318Z,102627.66
2023-04-16T18:59:25.960Z,102627.13
2023-04-16T19:01:54.065Z,102632.34
2023-04-16T19:04:22.022Z,102639.88
2023-04-16T19:06:51.374Z,102631.53
2023-04-16T19:09:19.895Z,102637.69
2023-04-16T19:11:50.602Z,102641.75
2023-04-16T19:14:18.546Z,102643.59
2023-04-16T19:16:46.489Z,102647.09
2023-04-16T19:19:14.471Z,102641.38
2023-04-16T19:21:42.362Z,102649.22
2023-04-16T19:24:11.571Z,102649.72
2023-04-16T19:26:39.500Z,102649.22
2023-04-16T19:29:07.324Z,102654.44
2023-04-16T19:31:35.132Z,102654.66
2023-04-16T19:34:04.193Z,102650.69
2023-04-16T19:36:32.434Z,102656.63
2023-04-16T19:39:00.172Z,102654.88
2023-04-16T19:41:29.281Z,102664.53
2023-04-16T19:43:57.914Z,102664.72
2023-04-16T19:46:25.931Z,102661.66
2023-04-16T19:48:53.772Z,102668.88
2023-04-16T19:51:21.598Z,102664.66
2023-04-16T19:53:49.573Z,102663.66
2023-04-16T19:56:17.597Z,102669.38
2023-04-16T19:58:46.807Z,102669.22
2023-04-16T20:01:14.599Z,102668.34
2023-04-16T20:03:42.728Z,102670.97
2023-04-16T20:06:10.609Z,102669.31
2023-04-16T20:08:38.747Z,102666.38
2023-04-16T20:11:08.455Z,102672.63
2023-04-16T20:13:37.721Z,102667.13
2023-04-16T20:16:08.508Z,102662.28
2023-04-16T20:18:41.205Z,102672.34
2023-04-16T20:21:09.382Z,102668.63
2023-04-16T20:23:37.307Z,102669.88
2023-04-16T20:26:05.492Z,102674.00
2023-04-16T20:28:33.204Z,102661.59
2023-04-16T20:31:01.121Z,102665.44
2023-04-16T20:33:30.379Z,102671.00
2023-04-16T20:35:58.352Z,102663.81
2023-04-16T20:38:26.122Z,102667.91
2023-04-16T20:41:06.391Z,102671.16
2023-04-16T20:43:38.349Z,102675.22
2023-04-16T20:46:06.238Z,102679.69
2023-04-16T20:48:36.085Z,102683.66
2023-04-16T20:51:05.298Z,102669.38
2023-04-16T20:53:33.824Z,102678.31
2023-04-16T20:56:01.744Z,102673.25
2023-04-16T20:58:30.125Z,102672.63
2023-04-16T21:00:58.567Z,102678.69
2023-04-16T21:03:26.547Z,102674.09
2023-04-16T21:05:56.716Z,102677.81
2023-04-16T21:08:24.987Z,102665.78
2023-04-16T21:10:52.818Z,102672.72
2023-04-16T21:13:21.799Z,102669.38
2023-04-16T21:15:49.599Z,102670.88
2023-04-16T21:18:18.559Z,102666.75
2023-04-16T21:20:46.388Z,102664.78
2023-04-16T21:23:15.594Z,102662.16
2023-04-16T21:25:43.405Z,102665.78
2023-04-16T21:28:11.219Z,102670.25
2023-04-16T21:30:39.451Z,102663.94
2023-04-16T21:33:07.829Z,102671.38
2023-04-16T21:35:35.859Z,102662.78
2023-04-16T21:38:03.892Z,102663.16
2023-04-16T21:40:33.155Z,102670.50
2023-04-16T21:43:01.112Z,102668.41
2023-04-16T21:45:30.523Z,102667.03
2023-04-16T21:47:58.503Z,102658.22
2023-04-16T21:50:26.401Z,102669.03
2023-04-16T21:52:54.823Z,102670.38
2023-04-16T21:55:22.637Z,102670.75
2023-04-16T21:57:51.741Z,102670.00
2023-04-16T22:00:21.124Z,102670.25
2023-04-16T22:02:49.211Z,102673.59
2023-04-16T22:05:17.567Z,102674.94
2023-04-16T22:07:45.319Z,102671.97
2023-04-16T22:10:15.159Z,102672.47
2023-04-16T22:12:44.859Z,102672.09
2023-04-16T22:15:14.767Z,102664.91
2023-04-16T22:17:42.727Z,102664.63
2023-04-16T22:20:12.745Z,102655.59
2023-04-16T22:22:40.615Z,102655.47
2023-04-16T22:25:09.167Z,102661.81
2023-04-16T22:27:37.240Z,102660.53
2023-04-16T22:30:06.052Z,102662.63
2023-04-16T22:32:35.405Z,102670.97
2023-04-16T22:35:03.396Z,102664.47
2023-04-16T22:37:31.296Z,102670.09
2023-04-16T22:39:59.044Z,102658.03
2023-04-16T22:42:27.048Z,102664.22
2023-04-16T22:44:54.815Z,102661.25
2023-04-16T22:47:22.651Z,102662.59
2023-04-16T22:49:51.890Z,102669.22
2023-04-16T22:52:19.604Z,102670.09
2023-04-16T22:54:47.424Z,102665.59
2023-04-16T22:57:17.332Z,102663.50
2023-04-16T22:59:45.074Z,102665.34
2023-04-16T23:02:12.819Z,102664.47
2023-04-16T23:04:40.690Z,102667.72
2023-04-16T23:07:10.122Z,102666.84
2023-04-16T23:09:37.906Z,102657.94
2023-04-16T23:12:06.191Z,102659.91
2023-04-16T23:14:34.497Z,102670.34
2023-04-16T23:17:02.497Z,102669.75
2023-04-16T23:19:31.189Z,102666.41
2023-04-16T23:21:59.091Z,102667.50
2023-04-16T23:24:28.288Z,102665.63
2023-04-16T23:26:56.050Z,102668.97
2023-04-16T23:29:24.077Z,102667.72
2023-04-16T23:31:52.187Z,102667.63
2023-04-16T23:34:20.051Z,102665.34
2023-04-16T23:36:47.898Z,102667.81
2023-04-16T23:39:15.793Z,102668.31
2023-04-16T23:41:44.897Z,102675.03
2023-04-16T23:44:12.662Z,102668.47
2023-04-16T23:46:41.077Z,102669.81
2023-04-16T23:49:09.072Z,102671.78
2023-04-16T23:51:36.950Z,102664.63
2023-04-16T23:54:04.951Z,102665.88
2023-04-16T23:56:32.668Z,102674.94
2023-04-16T23:59:01.794Z,102671.31
